Time;durP1;ratioP1;P1;durP2;ratioP2;P2;SDS_P1;SDS_P2;PMS_P1;PMS_P2;Temp;Humidity;BMP_temperature;BMP_pressure;BME280_temperature;BME280_humidity;BME280_pressure;Samples;Min_cycle;Max_cycle;Signal;HPM_P1;HPM_P2
2022/09/12 00:01:10;;;;;;;;;7.75;6.50;;;;;23.71;45.43;101055.25;5042704;28;45426;-53
2022/09/12 00:03:36;;;;;;;;;5.25;5.25;;;;;23.70;45.37;101055.38;5044131;28;45509;-49
2022/09/12 00:06:10;;;;;;;;;5.00;5.00;;;;;23.69;45.59;101043.91;5045387;28;45356;-51
2022/09/12 00:08:36;;;;;;;;;5.75;5.75;;;;;23.70;45.63;101050.91;5060365;28;46339;-48
2022/09/12 00:11:06;;;;;;;;;5.50;5.00;;;;;23.70;45.52;101047.44;5051443;28;45307;-53
2022/09/12 00:13:31;;;;;;;;;5.00;4.00;;;;;23.70;45.79;101047.44;5038013;28;45322;-50
2022/09/12 00:15:56;;;;;;;;;4.00;4.00;;;;;23.69;45.66;101038.63;5038085;28;45330;-51
2022/09/12 00:18:22;;;;;;;;;5.50;5.50;;;;;23.70;45.56;101042.97;5037616;28;47650;-49
2022/09/12 00:20:47;;;;;;;;;6.25;6.25;;;;;23.70;45.55;101035.03;5037376;28;48230;-53
2022/09/12 00:23:14;;;;;;;;;5.00;4.50;;;;;23.70;45.81;101029.75;5037380;28;56553;-53
2022/09/12 00:25:43;;;;;;;;;5.25;5.25;;;;;23.71;45.38;101028.78;5037586;28;45386;-53
2022/09/12 00:28:09;;;;;;;;;5.25;5.25;;;;;23.71;45.85;101030.56;5039002;28;46026;-54
2022/09/12 00:30:42;;;;;;;;;7.00;5.25;;;;;23.70;45.67;101019.16;5045615;28;45440;-46
2022/09/12 00:33:08;;;;;;;;;5.50;5.50;;;;;23.71;45.26;101020.84;5044309;28;45358;-50
2022/09/12 00:35:34;;;;;;;;;5.00;5.00;;;;;23.71;45.26;101020.84;5044466;28;45225;-50
2022/09/12 00:37:59;;;;;;;;;8.00;6.25;;;;;23.72;45.24;101027.84;5037650;28;47048;-49
2022/09/12 00:40:26;;;;;;;;;5.25;5.25;;;;;23.71;45.29;101018.19;5039221;28;45287;-47
2022/09/12 00:42:51;;;;;;;;;6.00;6.00;;;;;23.70;45.55;101013.84;5052452;28;45373;-48
2022/09/12 00:45:25;;;;;;;;;5.00;3.00;;;;;23.69;45.83;101009.50;5050522;28;50640;-48
2022/09/12 00:47:50;;;;;;;;;8.00;6.00;;;;;23.69;45.70;101001.56;5038689;28;46047;-48
2022/09/12 00:50:16;;;;;;;;;6.25;5.75;;;;;23.69;45.95;100998.09;5036802;28;45419;-51
2022/09/12 00:52:53;;;;;;;;;6.00;6.00;;;;;23.68;45.47;100994.59;5037403;28;45239;-49
2022/09/12 00:55:24;;;;;;;;;6.25;6.00;;;;;23.68;45.73;100993.75;5039425;28;45553;-46
2022/09/12 00:57:49;;;;;;;;;6.00;6.00;;;;;23.67;45.82;100995.53;5039435;28;47223;-46
2022/09/12 01:00:18;;;;;;;;;5.67;5.67;;;;;23.68;45.69;100989.28;5037453;28;45317;-49
2022/09/12 01:02:47;;;;;;;;;5.75;5.75;;;;;23.67;45.59;100992.88;5035828;28;45356;-48
2022/09/12 01:05:13;;;;;;;;;7.00;6.25;;;;;23.66;45.51;100991.19;5039471;28;45547;-50
2022/09/12 01:07:39;;;;;;;;;5.00;5.00;;;;;23.67;45.70;100992.06;5057474;28;45315;-49
2022/09/12 01:10:08;;;;;;;;;7.50;6.25;;;;;23.66;45.55;100985.06;5053371;28;45240;-54
2022/09/12 01:12:36;;;;;;;;;6.25;5.00;;;;;23.65;45.79;100989.50;5037747;28;45460;-55
2022/09/12 01:15:01;;;;;;;;;7.50;7.00;;;;;23.66;45.84;100993.00;5043773;28;45557;-49
2022/09/12 01:17:46;;;;;;;;;7.00;6.50;;;;;23.65;45.48;100983.34;5043952;28;45374;-51
2022/09/12 01:20:25;;;;;;;;;7.00;7.00;;;;;23.65;45.68;100984.19;5043542;28;45374;-53
2022/09/12 01:23:43;;;;;;;;;6.00;5.00;;;;;23.65;45.58;100978.06;5049644;28;44653;-51
2022/09/12 01:26:38;;;;;;;;;5.25;5.25;;;;;23.66;45.75;100977.13;4980142;28;45498;-56
2022/09/12 01:29:32;;;;;;;;;6.00;5.50;;;;;23.66;45.94;100972.66;4999560;28;46084;-52
2022/09/12 01:32:24;;;;;;;;;5.50;5.50;;;;;23.66;45.61;100980.59;5013107;28;45438;-53
2022/09/12 01:35:15;;;;;;;;;6.00;6.00;;;;;23.66;45.32;100967.38;5034883;28;45253;-55
2022/09/12 01:37:59;;;;;;;;;5.00;4.00;;;;;23.66;45.38;100962.06;5031600;28;45552;-52
2022/09/12 01:40:36;;;;;;;;;7.00;5.00;;;;;23.66;45.55;100963.88;5032515;28;45087;-51
2022/09/12 01:43:09;;;;;;;;;7.25;6.25;;;;;23.67;45.46;100963.78;5036460;28;45307;-51
2022/09/12 01:45:45;;;;;;;;;6.50;5.75;;;;;23.66;45.94;100956.78;5036101;28;45424;-52
2022/09/12 01:48:16;;;;;;;;;7.25;6.25;;;;;23.65;45.49;100965.66;5036801;28;45416;-51
2022/09/12 01:50:59;;;;;;;;;7.00;6.00;;;;;23.65;45.26;100957.72;5042246;28;46079;-51
2022/09/12 01:53:30;;;;;;;;;5.00;5.00;;;;;23.65;45.35;100957.72;5044199;28;45265;-51
2022/09/12 01:56:08;;;;;;;;;6.00;6.00;;;;;23.65;45.43;100955.09;5043017;28;45451;-52
2022/09/12 01:58:45;;;;;;;;;7.25;6.50;;;;;23.66;45.72;100956.78;5048371;28;45529;-51
2022/09/12 02:01:23;;;;;;;;;6.75;6.50;;;;;23.67;45.33;100962.94;5041387;28;46933;-52
2022/09/12 02:04:03;;;;;;;;;7.50;7.50;;;;;23.66;45.55;100959.44;5040122;28;45742;-53
2022/09/12 02:06:41;;;;;;;;;6.00;6.00;;;;;23.67;45.86;100960.31;5045036;28;45473;-56
2022/09/12 02:09:35;;;;;;;;;7.75;7.75;;;;;23.67;45.45;100958.47;5046930;28;45303;-53
2022/09/12 02:12:04;;;;;;;;;6.00;4.25;;;;;23.66;45.37;100954.13;5045241;28;45382;-55
2022/09/12 02:14:35;;;;;;;;;6.00;6.00;;;;;23.66;45.94;100953.31;5042843;28;45748;-51
2022/09/12 02:17:15;;;;;;;;;8.00;6.50;;;;;23.65;45.39;100955.09;5041393;28;45252;-50
2022/09/12 02:19:56;;;;;;;;;6.00;6.00;;;;;23.64;45.80;100950.78;5046756;28;45257;-56
2022/09/12 02:22:25;;;;;;;;;6.00;6.00;;;;;23.65;45.79;100948.97;5043490;28;45358;-51
2022/09/12 02:24:55;;;;;;;;;8.00;6.25;;;;;23.66;45.78;100945.38;5038288;28;45766;-49
2022/09/12 02:27:36;;;;;;;;;5.00;5.00;;;;;23.64;45.53;100940.19;5039196;28;45413;-48
2022/09/12 02:30:04;;;;;;;;;6.50;5.75;;;;;23.64;45.55;100940.19;5039578;28;45564;-51
2022/09/12 02:32:42;;;;;;;;;7.00;6.75;;;;;23.66;45.86;100937.44;5039628;28;47348;-46
2022/09/12 02:35:24;;;;;;;;;6.00;6.00;;;;;23.64;45.36;100934.91;5040466;28;45255;-50
2022/09/12 02:37:52;;;;;;;;;5.75;5.75;;;;;23.64;45.68;100934.91;5044972;28;45328;-45
2022/09/12 02:40:18;;;;;;;;;7.75;7.00;;;;;23.64;45.38;100929.59;5042328;28;45564;-53
2022/09/12 02:42:44;;;;;;;;;6.75;6.75;;;;;23.64;46.03;100934.91;5041693;28;46563;-54
2022/09/12 02:45:11;;;;;;;;;6.00;5.50;;;;;23.62;45.66;100927.03;5056091;28;44758;-48
2022/09/12 02:47:43;;;;;;;;;7.75;6.75;;;;;23.63;45.59;100920.81;5054582;28;45382;-46
2022/09/12 02:50:08;;;;;;;;;6.25;5.25;;;;;23.62;45.54;100908.53;5039654;28;45671;-45
2022/09/12 02:52:35;;;;;;;;;6.25;5.25;;;;;23.63;45.57;100922.63;5039021;28;45517;-46
2022/09/12 02:55:03;;;;;;;;;6.50;6.00;;;;;23.64;45.46;100916.38;5036745;28;45314;-48
2022/09/12 02:57:29;;;;;;;;;6.25;6.25;;;;;23.62;45.73;100910.34;5038892;28;45339;-47
2022/09/12 02:59:58;;;;;;;;;8.50;6.50;;;;;23.62;45.53;100910.34;5039261;28;45476;-49
2022/09/12 03:02:32;;;;;;;;;7.00;7.00;;;;;23.62;46.06;100905.03;5040984;28;46790;-49
2022/09/12 03:05:23;;;;;;;;;6.00;6.00;;;;;23.62;45.55;100905.03;5040126;28;45404;-46
2022/09/12 03:08:17;;;;;;;;;8.25;6.50;;;;;23.60;45.87;100901.66;5053830;28;45290;-50
2022/09/12 03:11:10;;;;;;;;;6.50;5.50;;;;;23.60;45.85;100896.34;5043693;28;45900;-49
2022/09/12 03:13:49;;;;;;;;;6.00;6.00;;;;;23.61;45.84;100892.75;5043032;28;45370;-50
2022/09/12 03:16:26;;;;;;;;;6.75;6.00;;;;;23.60;46.06;100893.72;5045414;28;45382;-50
2022/09/12 03:19:31;;;;;;;;;6.00;6.00;;;;;23.60;46.08;100891.91;5039558;28;45241;-48
2022/09/12 03:22:06;;;;;;;;;10.75;6.50;;;;;23.58;45.39;100896.47;5038714;28;45464;-50
2022/09/12 03:24:36;;;;;;;;;6.25;5.50;;;;;23.59;45.80;100892.00;5036790;28;45395;-51
2022/09/12 03:27:26;;;;;;;;;6.50;6.25;;;;;23.59;45.96;100894.66;5037665;28;45766;-49
2022/09/12 03:29:53;;;;;;;;;6.50;6.50;;;;;23.58;45.53;100887.66;5037403;28;45301;-56
2022/09/12 03:32:18;;;;;;;;;8.50;5.50;;;;;23.58;45.71;100877.09;5039101;28;44903;-54
2022/09/12 03:34:44;;;;;;;;;6.50;6.25;;;;;23.58;45.60;100885.03;5038542;28;46122;-55
2022/09/12 03:37:09;;;;;;;;;7.00;6.50;;;;;23.58;45.56;100879.72;5038581;28;45501;-55
2022/09/12 03:39:34;;;;;;;;;5.25;5.25;;;;;23.56;45.75;100879.84;5039139;28;45306;-54
2022/09/12 03:42:00;;;;;;;;;7.25;6.50;;;;;23.57;46.05;100872.75;5044615;28;45267;-57
2022/09/12 03:44:25;;;;;;;;;9.00;6.00;;;;;23.57;45.69;100884.19;5045552;28;45252;-52
2022/09/12 03:46:50;;;;;;;;;5.00;3.25;;;;;23.58;46.09;100877.09;5044679;28;45430;-52
2022/09/12 03:49:16;;;;;;;;;7.00;7.00;;;;;23.57;45.64;100868.31;5049950;28;45298;-53
2022/09/12 03:51:42;;;;;;;;;6.50;6.50;;;;;23.57;45.47;100870.09;5048033;28;45547;-50
2022/09/12 03:54:07;;;;;;;;;5.25;5.25;;;;;23.57;45.65;100878.91;5043904;28;47522;-50
2022/09/12 03:56:34;;;;;;;;;6.75;5.50;;;;;23.57;45.98;100876.25;5038254;28;45392;-48
2022/09/12 03:58:59;;;;;;;;;8.00;7.25;;;;;23.58;45.49;100877.09;5038653;28;45368;-48
2022/09/12 04:01:24;;;;;;;;;10.00;9.00;;;;;23.58;45.98;100871.81;5038647;28;45542;-47
2022/09/12 04:03:51;;;;;;;;;6.50;6.50;;;;;23.57;45.60;100878.03;5038415;28;46388;-51
2022/09/12 04:06:19;;;;;;;;;8.75;7.25;;;;;23.56;45.59;100879.84;5037660;28;45448;-50
2022/09/12 04:08:53;;;;;;;;;6.25;6.25;;;;;23.56;45.85;100879.00;5038896;28;45524;-47
2022/09/12 04:11:20;;;;;;;;;7.00;5.25;;;;;23.57;45.76;100888.63;5041955;28;45232;-47
2022/09/12 04:13:46;;;;;;;;;6.50;6.25;;;;;23.56;45.72;100879.00;5036714;28;46710;-47
2022/09/12 04:16:13;;;;;;;;;6.75;6.75;;;;;23.56;45.97;100879.00;5036117;28;45440;-51
2022/09/12 04:18:39;;;;;;;;;5.25;5.25;;;;;23.56;45.83;100879.00;5037940;28;45374;-51
2022/09/12 04:21:06;;;;;;;;;5.75;5.75;;;;;23.55;45.60;100885.22;5037518;28;45338;-49
2022/09/12 04:23:32;;;;;;;;;5.50;5.00;;;;;23.55;45.89;100887.88;5036273;28;46081;-51
2022/09/12 04:25:59;;;;;;;;;6.75;5.75;;;;;23.56;45.92;100889.56;5037914;28;45303;-54
2022/09/12 04:28:27;;;;;;;;;7.00;7.00;;;;;23.57;45.47;100888.63;5039150;28;45311;-49
2022/09/12 04:30:53;;;;;;;;;5.50;5.00;;;;;23.57;45.27;100891.25;5045007;28;45351;-50
2022/09/12 04:33:19;;;;;;;;;5.50;4.75;;;;;23.56;45.84;100884.28;5044226;28;46280;-50
2022/09/12 04:35:44;;;;;;;;;7.75;6.00;;;;;23.57;45.72;100883.31;5045534;28;45395;-48
2022/09/12 04:38:10;;;;;;;;;6.75;6.75;;;;;23.55;45.67;100883.44;5045366;28;45360;-47
2022/09/12 04:40:36;;;;;;;;;6.00;5.00;;;;;23.56;45.93;100879.00;5039638;28;45327;-46
2022/09/12 04:43:02;;;;;;;;;6.25;4.25;;;;;23.57;45.76;100886.84;5038063;28;46219;-47
2022/09/12 04:45:27;;;;;;;;;7.25;6.25;;;;;23.58;45.60;100887.66;5047429;28;45391;-47
2022/09/12 04:47:52;;;;;;;;;7.00;5.25;;;;;23.58;45.32;100887.66;5051532;28;44651;-47
2022/09/12 04:50:18;;;;;;;;;6.00;6.00;;;;;23.57;45.53;100870.09;5047364;28;45226;-46
2022/09/12 04:52:48;;;;;;;;;5.75;5.00;;;;;23.57;46.03;100876.25;5036042;28;59730;-49
2022/09/12 04:55:14;;;;;;;;;8.50;7.25;;;;;23.56;45.50;100866.63;5037986;28;45308;-53
2022/09/12 04:57:39;;;;;;;;;6.00;6.00;;;;;23.56;46.08;100868.41;5040076;28;45232;-47
2022/09/12 05:00:05;;;;;;;;;7.00;5.50;;;;;23.55;45.60;100862.28;5039327;28;45254;-50
2022/09/12 05:02:33;;;;;;;;;8.00;6.50;;;;;23.56;45.77;100868.41;5040827;28;45326;-46
2022/09/12 05:04:58;;;;;;;;;5.25;5.25;;;;;23.56;45.37;100869.28;5041080;28;45230;-50
2022/09/12 05:07:25;;;;;;;;;6.00;6.00;;;;;23.55;45.61;100866.72;5041648;28;45311;-47
2022/09/12 05:09:50;;;;;;;;;6.00;6.00;;;;;23.55;45.86;100867.56;5051183;28;45345;-50
2022/09/12 05:12:16;;;;;;;;;6.25;6.25;;;;;23.55;45.78;100861.41;5025599;28;46235;-50
2022/09/12 05:14:41;;;;;;;;;6.00;6.00;;;;;23.55;45.95;100858.78;5038273;28;45366;-47
2022/09/12 05:17:06;;;;;;;;;5.25;5.25;;;;;23.54;45.39;100854.44;5043250;28;45311;-50
2022/09/12 05:19:32;;;;;;;;;5.25;5.25;;;;;23.54;45.98;100854.44;5049172;28;45390;-53
2022/09/12 05:21:57;;;;;;;;;6.50;6.50;;;;;23.52;46.00;100854.53;5053766;28;46134;-50
2022/09/12 05:24:23;;;;;;;;;7.00;6.25;;;;;23.52;45.58;100859.84;5051790;28;44776;-47
2022/09/12 05:26:49;;;;;;;;;7.75;6.25;;;;;23.52;45.76;100859.84;5037455;28;45362;-48
2022/09/12 05:29:14;;;;;;;;;5.00;5.00;;;;;23.52;45.74;100861.66;5045359;28;45361;-53
2022/09/12 05:31:40;;;;;;;;;6.75;5.00;;;;;23.52;45.74;100862.47;5051555;28;45466;-47
2022/09/12 05:34:08;;;;;;;;;7.00;7.00;;;;;23.51;45.51;100860.78;5047658;28;45204;-50
2022/09/12 05:36:35;;;;;;;;;7.00;6.00;;;;;23.52;46.12;100859.00;5047666;28;44700;-52
2022/09/12 05:39:02;;;;;;;;;7.25;6.00;;;;;23.52;45.83;100859.00;5040604;28;45367;-46
2022/09/12 05:41:30;;;;;;;;;6.50;6.00;;;;;23.52;45.73;100862.47;5039232;28;46195;-50
2022/09/12 05:43:57;;;;;;;;;3.25;3.25;;;;;23.52;45.48;100851.91;5037579;28;45867;-53
2022/09/12 05:46:25;;;;;;;;;6.50;6.00;;;;;23.52;45.55;100859.00;5045568;28;45327;-48
2022/09/12 05:48:51;;;;;;;;;5.25;5.25;;;;;23.52;45.50;100861.66;5045828;28;45335;-54
2022/09/12 05:51:22;;;;;;;;;6.00;5.25;;;;;23.51;45.50;100859.94;5046851;28;46576;-53
2022/09/12 05:53:51;;;;;;;;;7.00;7.00;;;;;23.51;45.53;100867.88;5040719;28;45776;-49
2022/09/12 05:56:19;;;;;;;;;6.25;5.00;;;;;23.51;45.60;100870.53;5040284;28;45268;-51
2022/09/12 05:58:46;;;;;;;;;7.00;5.00;;;;;23.51;45.48;100870.53;5038948;28;45595;-52
2022/09/12 06:01:17;;;;;;;;;6.00;6.00;;;;;23.50;45.74;100864.38;5044363;28;46839;-52
2022/09/12 06:03:45;;;;;;;;;6.00;6.00;;;;;23.50;45.22;100872.31;5043195;28;45847;-52
2022/09/12 06:06:14;;;;;;;;;7.00;7.00;;;;;23.51;46.02;100866.06;5036384;28;45368;-53
2022/09/12 06:08:42;;;;;;;;;5.00;5.00;;;;;23.51;45.31;100865.25;5035438;28;45596;-51
2022/09/12 06:11:10;;;;;;;;;7.00;7.00;;;;;23.51;45.82;100852.00;5035665;28;45463;-50
2022/09/12 06:13:37;;;;;;;;;7.50;7.50;;;;;23.50;45.60;100850.31;5035775;28;45225;-52
2022/09/12 06:16:05;;;;;;;;;7.75;6.25;;;;;23.50;45.46;100863.53;5036408;28;45279;-51
2022/09/12 06:18:31;;;;;;;;;6.00;6.00;;;;;23.50;45.60;100869.66;5037159;28;45558;-46
2022/09/12 06:21:00;;;;;;;;;8.50;6.00;;;;;23.51;46.01;100867.88;5037102;28;47012;-52
2022/09/12 06:23:25;;;;;;;;;8.75;6.50;;;;;23.51;45.73;100867.88;5037102;28;45802;-48
2022/09/12 06:25:51;;;;;;;;;8.00;7.00;;;;;23.51;45.41;100865.25;5045289;28;45367;-49
2022/09/12 06:28:16;;;;;;;;;5.75;5.75;;;;;23.51;45.73;100868.72;5047486;28;45268;-49
2022/09/12 06:30:42;;;;;;;;;6.00;6.00;;;;;23.53;45.87;100871.28;5038764;28;46813;-45
2022/09/12 06:33:07;;;;;;;;;6.75;4.25;;;;;23.53;45.25;100873.94;5037557;28;45340;-47
2022/09/12 06:35:37;;;;;;;;;7.25;6.25;;;;;23.54;45.75;100880.88;5040504;28;45421;-50
2022/09/12 06:38:03;;;;;;;;;6.00;6.00;;;;;23.55;45.29;100882.56;5040363;28;46110;-50
2022/09/12 06:40:29;;;;;;;;;6.75;6.00;;;;;23.53;45.47;100873.94;5039643;28;46187;-48
2022/09/12 06:42:54;;;;;;;;;5.00;5.00;;;;;23.54;45.25;100875.59;5039441;28;45398;-48
2022/09/12 06:45:20;;;;;;;;;6.00;6.00;;;;;23.53;45.35;100879.22;5042439;28;45335;-47
2022/09/12 06:47:45;;;;;;;;;6.25;6.25;;;;;23.54;45.83;100876.47;5045625;28;45224;-50
2022/09/12 06:50:10;;;;;;;;;8.50;6.25;;;;;23.55;45.99;100877.28;5048799;28;66679;-48
2022/09/12 06:52:36;;;;;;;;;8.25;6.00;;;;;23.55;45.67;100882.56;5044640;28;48624;-47
2022/09/12 06:55:02;;;;;;;;;7.00;7.00;;;;;23.53;45.80;100877.41;5045144;28;45288;-50
2022/09/12 06:57:30;;;;;;;;;5.75;5.00;;;;;23.54;45.83;100880.88;5040487;28;45282;-50
2022/09/12 06:59:55;;;;;;;;;7.00;6.00;;;;;23.54;45.34;100870.31;5038449;28;45553;-51
2022/09/12 07:02:20;;;;;;;;;7.75;7.00;;;;;23.53;45.30;100876.56;5039620;28;45313;-47
2022/09/12 07:04:46;;;;;;;;;7.50;7.50;;;;;23.56;45.14;100879.00;5043354;28;45358;-50
2022/09/12 07:07:11;;;;;;;;;7.00;6.50;;;;;23.54;45.88;100870.31;5038763;28;45538;-55
2022/09/12 07:09:37;;;;;;;;;4.50;4.50;;;;;23.55;45.19;100872.00;5039377;28;46477;-52
2022/09/12 07:12:03;;;;;;;;;6.75;6.25;;;;;23.54;45.67;100865.00;5038379;28;53343;-50
2022/09/12 07:14:28;;;;;;;;;6.00;5.00;;;;;23.55;45.18;100882.56;5038978;28;45348;-48
2022/09/12 07:16:54;;;;;;;;;8.50;7.00;;;;;23.55;45.21;100878.16;5038579;28;45501;-49
2022/09/12 07:19:19;;;;;;;;;7.50;6.50;;;;;23.56;45.34;100879.00;5039265;28;46013;-49
2022/09/12 07:21:44;;;;;;;;;6.75;6.50;;;;;23.56;45.31;100879.00;5038610;28;45513;-48
2022/09/12 07:24:10;;;;;;;;;5.25;5.25;;;;;23.56;45.79;100882.50;5042272;28;45381;-51
2022/09/12 07:26:36;;;;;;;;;8.25;5.75;;;;;23.56;45.34;100876.34;5038982;28;45360;-49
2022/09/12 07:29:02;;;;;;;;;8.00;7.00;;;;;23.56;45.28;100863.13;5038422;28;46296;-47
2022/09/12 07:31:28;;;;;;;;;6.50;5.50;;;;;23.55;45.47;100867.56;5037193;28;45380;-47
2022/09/12 07:33:53;;;;;;;;;6.75;6.25;;;;;23.56;45.56;100869.28;5049991;28;45241;-50
2022/09/12 07:36:22;;;;;;;;;6.00;6.00;;;;;23.58;45.23;100871.81;5056317;28;45304;-48
2022/09/12 07:38:52;;;;;;;;;6.50;6.50;;;;;23.58;45.54;100872.66;5046981;28;45532;-52
2022/09/12 07:41:20;;;;;;;;;6.00;5.25;;;;;23.59;45.31;100870.84;5046005;28;45017;-47
2022/09/12 07:43:46;;;;;;;;;8.25;6.75;;;;;23.60;45.52;100875.19;5045530;28;45310;-49
2022/09/12 07:46:13;;;;;;;;;5.75;4.25;;;;;23.60;45.05;100870.72;5041884;28;45509;-50
2022/09/12 07:48:39;;;;;;;;;6.00;6.00;;;;;23.60;44.99;100869.91;5038516;28;47235;-51
2022/09/12 07:51:07;;;;;;;;;7.00;6.00;;;;;23.60;45.06;100869.91;5042828;28;45483;-47
2022/09/12 07:53:36;;;;;;;;;9.00;5.00;;;;;23.60;45.10;100869.91;5040665;28;45279;-55
2022/09/12 07:56:02;;;;;;;;;6.25;6.25;;;;;23.60;45.61;100873.38;5044368;28;45382;-50
2022/09/12 07:58:29;;;;;;;;;7.50;7.00;;;;;23.62;45.44;100878.59;5050767;28;46188;-47
2022/09/12 08:01:04;;;;;;;;;9.00;7.00;;;;;23.62;45.47;100874.13;5039110;28;45501;-52
2022/09/12 08:03:30;;;;;;;;;6.00;6.00;;;;;23.63;44.97;100875.00;5038373;28;45586;-53
2022/09/12 08:06:12;;;;;;;;;7.00;7.00;;;;;23.64;45.58;100871.41;5037256;28;45571;-52
2022/09/12 08:08:38;;;;;;;;;7.25;6.50;;;;;23.63;45.27;100869.69;5038448;28;46697;-50
2022/09/12 08:11:07;;;;;;;;;6.00;6.00;;;;;23.64;45.45;100868.75;5038321;28;45449;-55
2022/09/12 08:13:34;;;;;;;;;7.00;6.00;;;;;23.65;45.43;100862.47;5038357;28;45391;-52
2022/09/12 08:16:02;;;;;;;;;6.50;5.75;;;;;23.65;45.29;100867.78;5040002;28;45348;-54
2022/09/12 08:18:29;;;;;;;;;8.00;6.25;;;;;23.66;45.39;100866.81;5042988;28;45497;-54
2022/09/12 08:21:03;;;;;;;;;7.00;6.00;;;;;23.67;45.08;100872.97;5042796;28;45780;-48
2022/09/12 08:23:28;;;;;;;;;7.00;5.00;;;;;23.67;45.15;100868.53;5044111;28;45338;-50
2022/09/12 08:25:56;;;;;;;;;5.50;5.50;;;;;23.68;45.28;100866.75;5044988;28;45402;-46
2022/09/12 08:28:21;;;;;;;;;6.25;6.00;;;;;23.69;45.11;100876.38;5044107;28;45434;-46
2022/09/12 08:30:47;;;;;;;;;2.75;2.75;;;;;23.70;45.03;100870.97;5037189;28;45288;-50
2022/09/12 08:33:12;;;;;;;;;5.75;5.75;;;;;23.70;45.35;100870.97;5038218;28;45399;-48
